sensor_id;sensor_type;location;lat;lon;timestamp;pressure;altitude;pressure_sealevel;temperature;humidity
54248;BME280;40161;39.768;2.722;2023-01-09T00:02:19;101000.50;;;18.17;66.61
54248;BME280;40161;39.768;2.722;2023-01-09T00:04:45;100972.25;;;18.26;64.71
54248;BME280;40161;39.768;2.722;2023-01-09T00:07:10;101015.72;;;18.43;65.48
54248;BME280;40161;39.768;2.722;2023-01-09T00:09:36;101001.69;;;18.54;64.46
54248;BME280;40161;39.768;2.722;2023-01-09T00:12:01;100957.91;;;18.31;64.37
54248;BME280;40161;39.768;2.722;2023-01-09T00:14:27;100991.88;;;18.46;65.05
54248;BME280;40161;39.768;2.722;2023-01-09T00:16:53;101007.69;;;18.53;63.96
54248;BME280;40161;39.768;2.722;2023-01-09T00:19:19;101007.47;;;18.36;66.22
54248;BME280;40161;39.768;2.722;2023-01-09T00:21:45;101010.41;;;18.18;70.51
54248;BME280;40161;39.768;2.722;2023-01-09T00:24:10;101002.31;;;17.93;73.38
54248;BME280;40161;39.768;2.722;2023-01-09T00:26:36;101016.59;;;17.92;75.45
54248;BME280;40161;39.768;2.722;2023-01-09T00:29:01;100981.41;;;17.78;76.53
54248;BME280;40161;39.768;2.722;2023-01-09T00:31:27;100975.34;;;17.94;71.50
54248;BME280;40161;39.768;2.722;2023-01-09T00:34:02;100989.22;;;17.94;71.78
54248;BME280;40161;39.768;2.722;2023-01-09T00:36:29;100988.53;;;17.83;72.35
54248;BME280;40161;39.768;2.722;2023-01-09T00:38:55;100929.00;;;17.35;74.06
54248;BME280;40161;39.768;2.722;2023-01-09T00:41:25;100981.03;;;17.76;73.24
54248;BME280;40161;39.768;2.722;2023-01-09T00:43:57;100986.19;;;17.74;72.47
54248;BME280;40161;39.768;2.722;2023-01-09T00:46:28;100989.78;;;17.67;74.55
54248;BME280;40161;39.768;2.722;2023-01-09T00:48:55;100950.06;;;17.81;68.79
54248;BME280;40161;39.768;2.722;2023-01-09T00:51:21;100990.03;;;17.91;69.92
54248;BME280;40161;39.768;2.722;2023-01-09T00:53:48;100984.88;;;17.89;72.56
54248;BME280;40161;39.768;2.722;2023-01-09T00:56:17;100961.31;;;18.08;70.81
54248;BME280;40161;39.768;2.722;2023-01-09T00:58:44;100925.66;;;18.03;69.30
54248;BME280;40161;39.768;2.722;2023-01-09T01:01:10;100970.44;;;18.09;70.21
54248;BME280;40161;39.768;2.722;2023-01-09T01:03:36;100974.16;;;17.91;70.59
54248;BME280;40161;39.768;2.722;2023-01-09T01:06:02;100983.63;;;17.97;71.54
54248;BME280;40161;39.768;2.722;2023-01-09T01:08:46;100980.09;;;17.93;70.72
54248;BME280;40161;39.768;2.722;2023-01-09T01:11:12;100946.00;;;17.93;71.45
54248;BME280;40161;39.768;2.722;2023-01-09T01:13:39;100962.31;;;17.87;72.30
54248;BME280;40161;39.768;2.722;2023-01-09T01:16:10;100936.63;;;17.72;72.21
54248;BME280;40161;39.768;2.722;2023-01-09T01:18:36;100957.72;;;17.63;74.08
54248;BME280;40161;39.768;2.722;2023-01-09T01:21:07;100955.69;;;17.70;72.96
54248;BME280;40161;39.768;2.722;2023-01-09T01:23:33;100945.34;;;18.16;68.46
54248;BME280;40161;39.768;2.722;2023-01-09T01:26:10;100934.91;;;17.93;69.90
54248;BME280;40161;39.768;2.722;2023-01-09T01:28:36;100946.28;;;18.02;70.06
54248;BME280;40161;39.768;2.722;2023-01-09T01:31:02;100978.19;;;17.87;70.59
54248;BME280;40161;39.768;2.722;2023-01-09T01:33:28;100934.25;;;17.71;69.97
54248;BME280;40161;39.768;2.722;2023-01-09T01:36:04;100972.13;;;17.95;70.57
54248;BME280;40161;39.768;2.722;2023-01-09T01:38:32;100966.31;;;17.75;71.40
54248;BME280;40161;39.768;2.722;2023-01-09T01:40:58;100965.28;;;17.59;72.34
54248;BME280;40161;39.768;2.722;2023-01-09T01:43:24;100968.63;;;17.36;73.85
54248;BME280;40161;39.768;2.722;2023-01-09T01:45:50;100980.22;;;17.72;70.71
54248;BME280;40161;39.768;2.722;2023-01-09T01:48:23;100961.69;;;17.62;71.37
54248;BME280;40161;39.768;2.722;2023-01-09T01:53:23;100993.53;;;17.43;73.13
54248;BME280;40161;39.768;2.722;2023-01-09T01:56:12;100973.47;;;17.21;73.50
54248;BME280;40161;39.768;2.722;2023-01-09T01:58:53;100996.00;;;17.30;73.91
54248;BME280;40161;39.768;2.722;2023-01-09T02:01:21;100994.84;;;17.20;73.30
54248;BME280;40161;39.768;2.722;2023-01-09T02:03:48;100984.59;;;17.73;71.14
54248;BME280;40161;39.768;2.722;2023-01-09T02:06:15;100993.75;;;17.70;70.91
54248;BME280;40161;39.768;2.722;2023-01-09T02:08:41;100985.72;;;17.86;70.93
54248;BME280;40161;39.768;2.722;2023-01-09T02:11:07;100942.38;;;17.47;71.29
54248;BME280;40161;39.768;2.722;2023-01-09T02:13:34;100972.50;;;17.49;72.17
54248;BME280;40161;39.768;2.722;2023-01-09T02:32:46;100983.19;;;17.47;71.14
54248;BME280;40161;39.768;2.722;2023-01-09T02:43:38;100962.03;;;17.67;68.20
54248;BME280;40161;39.768;2.722;2023-01-09T02:46:05;100975.63;;;17.51;68.75
54248;BME280;40161;39.768;2.722;2023-01-09T02:48:41;100972.78;;;17.65;67.86
54248;BME280;40161;39.768;2.722;2023-01-09T02:51:13;101027.59;;;18.02;66.83
54248;BME280;40161;39.768;2.722;2023-01-09T02:54:39;101022.84;;;18.07;65.78
54248;BME280;40161;39.768;2.722;2023-01-09T02:57:01;101023.59;;;18.11;66.57
54248;BME280;40161;39.768;2.722;2023-01-09T03:02:44;101026.03;;;18.01;67.50
54248;BME280;40161;39.768;2.722;2023-01-09T03:05:29;100980.22;;;17.79;66.04
54248;BME280;40161;39.768;2.722;2023-01-09T03:08:07;100992.94;;;17.76;66.50
54248;BME280;40161;39.768;2.722;2023-01-09T03:13:27;101026.94;;;17.88;69.28
54248;BME280;40161;39.768;2.722;2023-01-09T03:15:56;101027.88;;;17.63;71.14
54248;BME280;40161;39.768;2.722;2023-01-09T03:18:26;101035.72;;;17.75;70.86
54248;BME280;40161;39.768;2.722;2023-01-09T03:20:55;101021.56;;;17.63;71.75
54248;BME280;40161;39.768;2.722;2023-01-09T03:23:20;101035.06;;;17.57;71.67
54248;BME280;40161;39.768;2.722;2023-01-09T03:25:46;101002.34;;;17.27;71.82
54248;BME280;40161;39.768;2.722;2023-01-09T03:28:32;101039.53;;;17.40;72.65
54248;BME280;40161;39.768;2.722;2023-01-09T03:30:57;101030.09;;;17.23;74.02
54248;BME280;40161;39.768;2.722;2023-01-09T03:33:23;101035.59;;;17.30;73.42
54248;BME280;40161;39.768;2.722;2023-01-09T03:35:48;101047.13;;;17.25;74.87
54248;BME280;40161;39.768;2.722;2023-01-09T03:38:14;101039.25;;;17.13;73.70
54248;BME280;40161;39.768;2.722;2023-01-09T03:40:40;101036.50;;;17.13;76.14
54248;BME280;40161;39.768;2.722;2023-01-09T03:43:07;101050.28;;;17.24;77.88
54248;BME280;40161;39.768;2.722;2023-01-09T03:45:33;101038.91;;;17.07;78.29
54248;BME280;40161;39.768;2.722;2023-01-09T03:47:58;101045.59;;;17.21;77.09
54248;BME280;40161;39.768;2.722;2023-01-09T03:50:24;101040.91;;;17.03;78.09
54248;BME280;40161;39.768;2.722;2023-01-09T03:52:49;101032.06;;;17.26;76.63
54248;BME280;40161;39.768;2.722;2023-01-09T03:55:15;101044.03;;;17.09;77.13
54248;BME280;40161;39.768;2.722;2023-01-09T03:57:41;101038.13;;;17.03;78.60
54248;BME280;40161;39.768;2.722;2023-01-09T04:00:07;101029.03;;;16.99;79.09
54248;BME280;40161;39.768;2.722;2023-01-09T04:02:32;101043.63;;;17.18;74.55
54248;BME280;40161;39.768;2.722;2023-01-09T04:04:58;101040.84;;;17.18;73.52
54248;BME280;40161;39.768;2.722;2023-01-09T04:07:23;101061.06;;;17.11;76.17
54248;BME280;40161;39.768;2.722;2023-01-09T04:09:49;101051.56;;;17.08;75.78
54248;BME280;40161;39.768;2.722;2023-01-09T04:12:14;101039.31;;;17.02;75.89
54248;BME280;40161;39.768;2.722;2023-01-09T04:14:40;101055.91;;;17.09;75.53
54248;BME280;40161;39.768;2.722;2023-01-09T04:17:05;101051.19;;;16.99;77.76
54248;BME280;40161;39.768;2.722;2023-01-09T04:19:31;101046.50;;;16.85;79.49
54248;BME280;40161;39.768;2.722;2023-01-09T04:21:56;101057.59;;;16.85;79.13
54248;BME280;40161;39.768;2.722;2023-01-09T04:24:22;101039.44;;;16.63;81.45
54248;BME280;40161;39.768;2.722;2023-01-09T04:26:47;101058.03;;;16.77;80.39
54248;BME280;40161;39.768;2.722;2023-01-09T04:29:13;101056.44;;;16.76;81.73
54248;BME280;40161;39.768;2.722;2023-01-09T04:31:38;101012.56;;;16.46;81.94
54248;BME280;40161;39.768;2.722;2023-01-09T04:34:04;101065.13;;;16.71;82.29
54248;BME280;40161;39.768;2.722;2023-01-09T04:36:29;101035.06;;;16.58;81.58
54248;BME280;40161;39.768;2.722;2023-01-09T04:38:55;101052.06;;;16.78;78.65
54248;BME280;40161;39.768;2.722;2023-01-09T04:41:21;101071.06;;;16.73;80.25
54248;BME280;40161;39.768;2.722;2023-01-09T04:44:05;101040.19;;;16.78;79.75
54248;BME280;40161;39.768;2.722;2023-01-09T04:46:31;101085.28;;;16.89;77.52
54248;BME280;40161;39.768;2.722;2023-01-09T04:48:56;101067.03;;;17.02;75.33
54248;BME280;40161;39.768;2.722;2023-01-09T04:51:22;101042.56;;;16.61;79.00
54248;BME280;40161;39.768;2.722;2023-01-09T04:53:47;101050.94;;;16.47;80.95
54248;BME280;40161;39.768;2.722;2023-01-09T04:56:13;101071.84;;;16.73;82.13
54248;BME280;40161;39.768;2.722;2023-01-09T04:58:38;101085.31;;;16.68;81.88
54248;BME280;40161;39.768;2.722;2023-01-09T05:01:04;101108.31;;;16.50;83.17
54248;BME280;40161;39.768;2.722;2023-01-09T05:03:30;101115.84;;;16.46;84.87
54248;BME280;40161;39.768;2.722;2023-01-09T05:05:55;101114.25;;;16.52;84.79
54248;BME280;40161;39.768;2.722;2023-01-09T05:08:21;101041.88;;;16.04;84.31
54248;BME280;40161;39.768;2.722;2023-01-09T05:10:46;101094.88;;;16.38;85.01
54248;BME280;40161;39.768;2.722;2023-01-09T05:13:12;101116.22;;;16.55;83.87
54248;BME280;40161;39.768;2.722;2023-01-09T05:15:37;101120.56;;;16.60;83.31
54248;BME280;40161;39.768;2.722;2023-01-09T05:18:03;101121.78;;;16.52;84.28
54248;BME280;40161;39.768;2.722;2023-01-09T05:20:28;101109.09;;;16.33;85.47
54248;BME280;40161;39.768;2.722;2023-01-09T05:22:54;101122.97;;;16.29;85.79
54248;BME280;40161;39.768;2.722;2023-01-09T05:25:19;101083.00;;;16.02;86.04
54248;BME280;40161;39.768;2.722;2023-01-09T05:27:45;101084.56;;;15.92;86.74
54248;BME280;40161;39.768;2.722;2023-01-09T05:30:12;101137.59;;;16.26;87.40
54248;BME280;40161;39.768;2.722;2023-01-09T05:32:38;101145.47;;;16.21;87.81
54248;BME280;40161;39.768;2.722;2023-01-09T05:35:03;101129.28;;;16.26;88.13
54248;BME280;40161;39.768;2.722;2023-01-09T05:37:29;101139.56;;;16.22;87.60
54248;BME280;40161;39.768;2.722;2023-01-09T05:39:55;101138.00;;;16.10;87.63
54248;BME280;40161;39.768;2.722;2023-01-09T05:42:20;101158.94;;;15.97;89.49
54248;BME280;40161;39.768;2.722;2023-01-09T05:44:46;101158.50;;;15.88;89.58
54248;BME280;40161;39.768;2.722;2023-01-09T05:47:11;101166.00;;;15.84;90.17
54248;BME280;40161;39.768;2.722;2023-01-09T05:49:37;101160.03;;;15.75;90.27
54248;BME280;40161;39.768;2.722;2023-01-09T05:52:02;101173.47;;;15.69;90.68
54248;BME280;40161;39.768;2.722;2023-01-09T05:54:29;101188.09;;;15.70;91.24
54248;BME280;40161;39.768;2.722;2023-01-09T05:56:54;101143.78;;;15.59;89.46
54248;BME280;40161;39.768;2.722;2023-01-09T05:59:21;101147.31;;;15.52;90.32
54248;BME280;40161;39.768;2.722;2023-01-09T06:01:47;101189.28;;;15.79;91.17
54248;BME280;40161;39.768;2.722;2023-01-09T06:04:13;101139.78;;;15.53;90.34
54248;BME280;40161;39.768;2.722;2023-01-09T06:06:38;101196.03;;;15.82;89.27
54248;BME280;40161;39.768;2.722;2023-01-09T06:09:05;101205.09;;;15.72;89.90
54248;BME280;40161;39.768;2.722;2023-01-09T06:11:31;101174.50;;;15.39;89.99
54248;BME280;40161;39.768;2.722;2023-01-09T06:13:58;101200.16;;;15.33;92.34
54248;BME280;40161;39.768;2.722;2023-01-09T06:16:24;101202.50;;;15.31;92.13
54248;BME280;40161;39.768;2.722;2023-01-09T06:18:50;101171.13;;;15.02;93.32
54248;BME280;40161;39.768;2.722;2023-01-09T06:21:15;101210.34;;;15.18;94.46
54248;BME280;40161;39.768;2.722;2023-01-09T06:23:41;101217.84;;;15.17;94.45
54248;BME280;40161;39.768;2.722;2023-01-09T06:26:07;101202.72;;;15.01;94.50
54248;BME280;40161;39.768;2.722;2023-01-09T06:28:32;101223.25;;;15.03;95.15
54248;BME280;40161;39.768;2.722;2023-01-09T06:30:58;101246.91;;;14.97;94.89
54248;BME280;40161;39.768;2.722;2023-01-09T06:33:23;101233.47;;;14.95;95.00
54248;BME280;40161;39.768;2.722;2023-01-09T06:35:49;101251.19;;;14.87;96.08
54248;BME280;40161;39.768;2.722;2023-01-09T06:38:14;101245.31;;;14.96;95.38
54248;BME280;40161;39.768;2.722;2023-01-09T06:40:40;101227.00;;;14.74;95.72
54248;BME280;40161;39.768;2.722;2023-01-09T06:43:05;101263.91;;;14.99;95.33
54248;BME280;40161;39.768;2.722;2023-01-09T06:45:31;101250.38;;;14.83;96.17
54248;BME280;40161;39.768;2.722;2023-01-09T06:47:56;101239.41;;;14.94;95.99
54248;BME280;40161;39.768;2.722;2023-01-09T06:50:23;101240.09;;;14.84;96.89
54248;BME280;40161;39.768;2.722;2023-01-09T06:52:48;101245.28;;;14.92;97.14
54248;BME280;40161;39.768;2.722;2023-01-09T06:55:14;101260.34;;;14.99;96.84
54248;BME280;40161;39.768;2.722;2023-01-09T06:57:42;101277.78;;;15.10;96.41
54248;BME280;40161;39.768;2.722;2023-01-09T07:00:08;101278.94;;;15.02;96.47
54248;BME280;40161;39.768;2.722;2023-01-09T07:02:33;101216.66;;;14.63;96.34
54248;BME280;40161;39.768;2.722;2023-01-09T07:05:00;101275.28;;;14.90;97.25
54248;BME280;40161;39.768;2.722;2023-01-09T07:07:26;101274.88;;;14.88;96.75
54248;BME280;40161;39.768;2.722;2023-01-09T07:09:52;101282.38;;;14.88;97.16
54248;BME280;40161;39.768;2.722;2023-01-09T07:12:17;101291.25;;;14.67;97.81
54248;BME280;40161;39.768;2.722;2023-01-09T07:14:43;101294.50;;;14.39;100.00
54248;BME280;40161;39.768;2.722;2023-01-09T07:17:11;101293.75;;;14.42;100.00
54248;BME280;40161;39.768;2.722;2023-01-09T07:19:37;101294.94;;;14.44;99.83
54248;BME280;40161;39.768;2.722;2023-01-09T07:22:03;101311.06;;;14.39;100.00
54248;BME280;40161;39.768;2.722;2023-01-09T07:24:28;101297.78;;;14.14;100.00
54248;BME280;40161;39.768;2.722;2023-01-09T07:26:54;101310.00;;;14.17;100.00
54248;BME280;40161;39.768;2.722;2023-01-09T07:29:19;101302.78;;;14.05;100.00
54248;BME280;40161;39.768;2.722;2023-01-09T07:31:45;101330.69;;;14.00;100.00
54248;BME280;40161;39.768;2.722;2023-01-09T07:34:11;101292.81;;;13.97;100.00
54248;BME280;40161;39.768;2.722;2023-01-09T07:36:36;101304.84;;;14.12;100.00
54248;BME280;40161;39.768;2.722;2023-01-09T07:39:02;101314.06;;;14.27;100.00
54248;BME280;40161;39.768;2.722;2023-01-09T07:41:27;101311.03;;;14.35;100.00
54248;BME280;40161;39.768;2.722;2023-01-09T07:43:53;101326.25;;;14.52;100.00
54248;BME280;40161;39.768;2.722;2023-01-09T07:46:19;101315.28;;;14.29;100.00
54248;BME280;40161;39.768;2.722;2023-01-09T07:48:44;101305.25;;;14.14;100.00
54248;BME280;40161;39.768;2.722;2023-01-09T07:51:10;101329.38;;;14.20;100.00
54248;BME280;40161;39.768;2.722;2023-01-09T07:53:35;101349.66;;;14.32;100.00
54248;BME280;40161;39.768;2.722;2023-01-09T07:56:01;101340.84;;;14.22;100.00
54248;BME280;40161;39.768;2.722;2023-01-09T07:58:27;101263.91;;;13.84;100.00
54248;BME280;40161;39.768;2.722;2023-01-09T08:00:52;101354.22;;;14.20;100.00
54248;BME280;40161;39.768;2.722;2023-01-09T08:03:17;101349.84;;;14.16;100.00
54248;BME280;40161;39.768;2.722;2023-01-09T08:05:44;101353.81;;;14.18;100.00
54248;BME280;40161;39.768;2.722;2023-01-09T08:08:10;101376.16;;;14.10;100.00
54248;BME280;40161;39.768;2.722;2023-01-09T08:10:35;101379.97;;;13.98;100.00
54248;BME280;40161;39.768;2.722;2023-01-09T08:13:01;101350.38;;;13.68;100.00
54248;BME280;40161;39.768;2.722;2023-01-09T08:15:28;101391.75;;;13.95;100.00
54248;BME280;40161;39.768;2.722;2023-01-09T08:17:53;101383.72;;;13.86;100.00
54248;BME280;40161;39.768;2.722;2023-01-09T08:20:19;101392.47;;;13.92;100.00
54248;BME280;40161;39.768;2.722;2023-01-09T08:22:45;101371.16;;;13.62;100.00
54248;BME280;40161;39.768;2.722;2023-01-09T08:25:15;101408.16;;;13.84;100.00
54248;BME280;40161;39.768;2.722;2023-01-09T08:27:40;101415.00;;;13.94;100.00
54248;BME280;40161;39.768;2.722;2023-01-09T08:30:08;101409.44;;;13.90;100.00
54248;BME280;40161;39.768;2.722;2023-01-09T08:32:35;101430.03;;;14.00;100.00
54248;BME280;40161;39.768;2.722;2023-01-09T08:35:01;101433.53;;;13.97;100.00
54248;BME280;40161;39.768;2.722;2023-01-09T08:37:27;101431.63;;;13.74;100.00
54248;BME280;40161;39.768;2.722;2023-01-09T08:39:53;101447.91;;;13.83;100.00
54248;BME280;40161;39.768;2.722;2023-01-09T08:42:19;101453.63;;;13.94;100.00
54248;BME280;40161;39.768;2.722;2023-01-09T08:45:03;101460.28;;;13.93;100.00
54248;BME280;40161;39.768;2.722;2023-01-09T08:47:48;101475.25;;;13.92;100.00
54248;BME280;40161;39.768;2.722;2023-01-09T08:50:13;101488.03;;;14.04;100.00
54248;BME280;40161;39.768;2.722;2023-01-09T08:52:39;101458.66;;;13.88;100.00
54248;BME280;40161;39.768;2.722;2023-01-09T08:55:05;101453.06;;;13.85;100.00
54248;BME280;40161;39.768;2.722;2023-01-09T08:57:30;101508.88;;;13.97;100.00
54248;BME280;40161;39.768;2.722;2023-01-09T08:59:56;101510.34;;;13.91;100.00
54248;BME280;40161;39.768;2.722;2023-01-09T09:02:22;101518.28;;;13.96;100.00
54248;BME280;40161;39.768;2.722;2023-01-09T09:04:47;101519.63;;;14.06;100.00
54248;BME280;40161;39.768;2.722;2023-01-09T09:07:17;101527.19;;;14.09;100.00
54248;BME280;40161;39.768;2.722;2023-01-09T09:09:53;101519.09;;;13.97;100.00
54248;BME280;40161;39.768;2.722;2023-01-09T09:12:19;101521.06;;;13.96;97.33
54248;BME280;40161;39.768;2.722;2023-01-09T09:14:44;101545.13;;;14.22;97.69
54248;BME280;40161;39.768;2.722;2023-01-09T09:17:28;101531.09;;;14.08;98.13
54248;BME280;40161;39.768;2.722;2023-01-09T09:19:54;101534.59;;;14.05;97.90
54248;BME280;40161;39.768;2.722;2023-01-09T09:22:19;101561.94;;;14.14;98.06
54248;BME280;40161;39.768;2.722;2023-01-09T09:24:45;101571.16;;;14.21;95.88
54248;BME280;40161;39.768;2.722;2023-01-09T09:27:11;101563.91;;;14.13;91.90
54248;BME280;40161;39.768;2.722;2023-01-09T09:29:37;101532.88;;;13.97;91.75
54248;BME280;40161;39.768;2.722;2023-01-09T09:32:03;101574.44;;;14.31;89.76
54248;BME280;40161;39.768;2.722;2023-01-09T09:34:28;101586.44;;;14.42;88.79
54248;BME280;40161;39.768;2.722;2023-01-09T09:36:54;101578.84;;;14.35;87.68
54248;BME280;40161;39.768;2.722;2023-01-09T09:39:19;101605.06;;;14.48;85.52
54248;BME280;40161;39.768;2.722;2023-01-09T09:42:02;101625.56;;;14.70;82.42
54248;BME280;40161;39.768;2.722;2023-01-09T09:48:03;101640.97;;;14.98;80.61
54248;BME280;40161;39.768;2.722;2023-01-09T09:53:53;101617.94;;;15.20;73.17
54248;BME280;40161;39.768;2.722;2023-01-09T09:56:22;101628.66;;;15.56;71.79
54248;BME280;40161;39.768;2.722;2023-01-09T09:59:03;101637.59;;;15.79;70.63
54248;BME280;40161;39.768;2.722;2023-01-09T10:01:37;101637.75;;;15.90;70.79
54248;BME280;40161;39.768;2.722;2023-01-09T10:04:09;101647.75;;;16.05;70.84
54248;BME280;40161;39.768;2.722;2023-01-09T10:06:42;101642.28;;;16.12;69.91
54248;BME280;40161;39.768;2.722;2023-01-09T10:11:53;101623.84;;;16.31;67.97
54248;BME280;40161;39.768;2.722;2023-01-09T10:14:21;101627.09;;;16.40;67.53
54248;BME280;40161;39.768;2.722;2023-01-09T10:20:05;101668.59;;;16.84;62.46
54248;BME280;40161;39.768;2.722;2023-01-09T10:30:46;101654.91;;;16.58;62.97
54248;BME280;40161;39.768;2.722;2023-01-09T10:39:00;101661.94;;;16.45;61.90
54248;BME280;40161;39.768;2.722;2023-01-09T10:41:39;101680.66;;;16.58;61.43
54248;BME280;40161;39.768;2.722;2023-01-09T10:44:33;101674.13;;;16.81;60.87
54248;BME280;40161;39.768;2.722;2023-01-09T10:47:04;101655.88;;;16.76;59.53
54248;BME280;40161;39.768;2.722;2023-01-09T10:49:33;101678.63;;;17.03;59.10
54248;BME280;40161;39.768;2.722;2023-01-09T10:54:24;101675.03;;;17.03;59.12
54248;BME280;40161;39.768;2.722;2023-01-09T10:57:03;101665.91;;;16.95;58.80
54248;BME280;40161;39.768;2.722;2023-01-09T10:59:30;101673.94;;;17.15;59.30
54248;BME280;40161;39.768;2.722;2023-01-09T11:01:56;101669.94;;;17.12;57.92
54248;BME280;40161;39.768;2.722;2023-01-09T11:04:35;101666.13;;;17.35;57.34
54248;BME280;40161;39.768;2.722;2023-01-09T11:12:25;101670.50;;;17.46;56.25
54248;BME280;40161;39.768;2.722;2023-01-09T11:14:51;101666.63;;;17.69;54.71
54248;BME280;40161;39.768;2.722;2023-01-09T11:17:25;101658.69;;;17.71;53.06
54248;BME280;40161;39.768;2.722;2023-01-09T11:20:02;101664.56;;;17.48;54.93
54248;BME280;40161;39.768;2.722;2023-01-09T11:22:27;101621.75;;;17.42;53.92
54248;BME280;40161;39.768;2.722;2023-01-09T11:25:01;101659.06;;;17.55;53.65
54248;BME280;40161;39.768;2.722;2023-01-09T11:27:27;101640.78;;;17.50;52.17
54248;BME280;40161;39.768;2.722;2023-01-09T11:32:33;101643.19;;;17.55;53.32
54248;BME280;40161;39.768;2.722;2023-01-09T11:34:59;101612.66;;;17.52;52.90
54248;BME280;40161;39.768;2.722;2023-01-09T11:37:29;101650.44;;;17.92;52.02
54248;BME280;40161;39.768;2.722;2023-01-09T11:39:57;101673.84;;;17.91;52.05
54248;BME280;40161;39.768;2.722;2023-01-09T11:42:26;101645.66;;;17.89;49.51
54248;BME280;40161;39.768;2.722;2023-01-09T11:45:20;101666.69;;;17.76;51.67
54248;BME280;40161;39.768;2.722;2023-01-09T11:47:48;101663.47;;;17.74;50.98
54248;BME280;40161;39.768;2.722;2023-01-09T11:50:17;101670.97;;;17.59;50.55
54248;BME280;40161;39.768;2.722;2023-01-09T11:52:44;101623.38;;;17.61;49.61
54248;BME280;40161;39.768;2.722;2023-01-09T11:55:14;101669.00;;;17.70;48.72
54248;BME280;40161;39.768;2.722;2023-01-09T11:57:40;101668.19;;;17.63;48.73
54248;BME280;40161;39.768;2.722;2023-01-09T12:03:14;101641.69;;;16.89;49.46
54248;BME280;40161;39.768;2.722;2023-01-09T12:06:02;101690.59;;;17.18;49.16
54248;BME280;40161;39.768;2.722;2023-01-09T12:11:14;101662.78;;;17.00;50.35
54248;BME280;40161;39.768;2.722;2023-01-09T12:19:15;101660.78;;;16.97;49.44
54248;BME280;40161;39.768;2.722;2023-01-09T12:24:59;101699.94;;;16.92;49.64
54248;BME280;40161;39.768;2.722;2023-01-09T12:32:51;101668.63;;;16.88;49.37
54248;BME280;40161;39.768;2.722;2023-01-09T12:38:53;101708.66;;;16.91;49.63
54248;BME280;40161;39.768;2.722;2023-01-09T12:41:19;101652.41;;;16.87;47.29
54248;BME280;40161;39.768;2.722;2023-01-09T12:49:24;101672.09;;;16.74;45.30
54248;BME280;40161;39.768;2.722;2023-01-09T12:52:04;101693.66;;;16.99;45.26
54248;BME280;40161;39.768;2.722;2023-01-09T12:54:45;101684.03;;;16.85;45.03
54248;BME280;40161;39.768;2.722;2023-01-09T12:57:23;101682.13;;;16.90;45.33
54248;BME280;40161;39.768;2.722;2023-01-09T12:59:54;101685.22;;;16.81;45.06
54248;BME280;40161;39.768;2.722;2023-01-09T13:02:34;101677.47;;;16.56;45.68
54248;BME280;40161;39.768;2.722;2023-01-09T13:05:09;101674.69;;;16.53;46.10
54248;BME280;40161;39.768;2.722;2023-01-09T13:10:25;101675.19;;;16.66;47.35
54248;BME280;40161;39.768;2.722;2023-01-09T13:12:52;101681.09;;;16.64;47.83
54248;BME280;40161;39.768;2.722;2023-01-09T13:15:32;101645.09;;;16.68;47.36
54248;BME280;40161;39.768;2.722;2023-01-09T13:18:15;101670.00;;;16.60;47.94
54248;BME280;40161;39.768;2.722;2023-01-09T13:20:51;101682.97;;;16.49;48.57
54248;BME280;40161;39.768;2.722;2023-01-09T13:25:57;101707.16;;;16.52;49.17
54248;BME280;40161;39.768;2.722;2023-01-09T13:28:47;101691.88;;;16.25;48.35
54248;BME280;40161;39.768;2.722;2023-01-09T13:34:37;101682.78;;;16.28;49.22
54248;BME280;40161;39.768;2.722;2023-01-09T13:37:04;101676.44;;;16.27;49.17
54248;BME280;40161;39.768;2.722;2023-01-09T13:39:31;101688.69;;;16.26;49.05
54248;BME280;40161;39.768;2.722;2023-01-09T13:42:03;101676.88;;;16.33;48.31
54248;BME280;40161;39.768;2.722;2023-01-09T13:44:51;101684.38;;;16.29;48.88
54248;BME280;40161;39.768;2.722;2023-01-09T13:47:26;101657.97;;;16.42;48.03
54248;BME280;40161;39.768;2.722;2023-01-09T13:52:43;101681.59;;;16.29;48.77
54248;BME280;40161;39.768;2.722;2023-01-09T14:08:02;101693.38;;;16.19;49.26
54248;BME280;40161;39.768;2.722;2023-01-09T14:10:35;101692.13;;;16.12;48.49
54248;BME280;40161;39.768;2.722;2023-01-09T14:13:08;101697.94;;;16.00;48.74
54248;BME280;40161;39.768;2.722;2023-01-09T14:15:39;101695.19;;;16.00;49.16
54248;BME280;40161;39.768;2.722;2023-01-09T14:18:13;101674.59;;;15.98;48.89
54248;BME280;40161;39.768;2.722;2023-01-09T14:21:07;101708.47;;;16.25;48.29
54248;BME280;40161;39.768;2.722;2023-01-09T14:26:03;101709.44;;;16.02;48.80
54248;BME280;40161;39.768;2.722;2023-01-09T14:28:31;101703.22;;;16.12;48.89
54248;BME280;40161;39.768;2.722;2023-01-09T14:36:08;101725.63;;;16.00;49.05
54248;BME280;40161;39.768;2.722;2023-01-09T14:44:15;101726.13;;;16.09;49.87
54248;BME280;40161;39.768;2.722;2023-01-09T14:46:45;101724.47;;;16.01;50.48
54248;BME280;40161;39.768;2.722;2023-01-09T14:49:33;101707.31;;;15.58;51.12
54248;BME280;40161;39.768;2.722;2023-01-09T14:52:06;101736.25;;;15.95;50.19
54248;BME280;40161;39.768;2.722;2023-01-09T14:54:35;101726.09;;;15.72;51.36
54248;BME280;40161;39.768;2.722;2023-01-09T14:57:02;101736.16;;;15.87;51.17
54248;BME280;40161;39.768;2.722;2023-01-09T14:59:28;101722.53;;;15.72;50.79
54248;BME280;40161;39.768;2.722;2023-01-09T15:01:54;101702.59;;;15.59;51.46
54248;BME280;40161;39.768;2.722;2023-01-09T15:04:37;101746.56;;;15.98;50.39
54248;BME280;40161;39.768;2.722;2023-01-09T15:07:04;101746.72;;;16.12;50.54
54248;BME280;40161;39.768;2.722;2023-01-09T15:11:59;101743.19;;;15.81;50.94
54248;BME280;40161;39.768;2.722;2023-01-09T15:14:32;101747.28;;;15.91;50.92
54248;BME280;40161;39.768;2.722;2023-01-09T15:16:59;101740.53;;;15.88;51.89